sensor_id;sensor_type;location;lat;lon;timestamp;P1;durP1;ratioP1;P2;durP2;ratioP2
11064;SDS011;5585;52.530;7.320;2024-03-02T00:00:29;5.13;;;2.90;;
11064;SDS011;5585;52.530;7.320;2024-03-02T00:02:55;3.70;;;3.03;;
11064;SDS011;5585;52.530;7.320;2024-03-02T00:05:22;3.73;;;2.90;;
11064;SDS011;5585;52.530;7.320;2024-03-02T00:07:52;3.47;;;2.80;;
11064;SDS011;5585;52.530;7.320;2024-03-02T00:10:19;3.60;;;3.27;;
11064;SDS011;5585;52.530;7.320;2024-03-02T00:12:48;3.93;;;3.03;;
11064;SDS011;5585;52.530;7.320;2024-03-02T00:15:28;3.40;;;3.00;;
11064;SDS011;5585;52.530;7.320;2024-03-02T00:17:57;2.93;;;2.60;;
11064;SDS011;5585;52.530;7.320;2024-03-02T00:20:24;3.67;;;3.10;;
11064;SDS011;5585;52.530;7.320;2024-03-02T00:22:52;2.83;;;2.57;;
11064;SDS011;5585;52.530;7.320;2024-03-02T00:25:21;3.00;;;2.70;;
11064;SDS011;5585;52.530;7.320;2024-03-02T00:27:49;3.20;;;2.90;;
11064;SDS011;5585;52.530;7.320;2024-03-02T00:30:37;3.57;;;2.53;;
11064;SDS011;5585;52.530;7.320;2024-03-02T00:33:03;3.33;;;2.50;;
11064;SDS011;5585;52.530;7.320;2024-03-02T00:35:32;3.20;;;2.90;;
11064;SDS011;5585;52.530;7.320;2024-03-02T00:38:01;3.13;;;2.70;;
11064;SDS011;5585;52.530;7.320;2024-03-02T00:40:29;2.53;;;2.33;;
11064;SDS011;5585;52.530;7.320;2024-03-02T00:42:57;3.10;;;2.50;;
11064;SDS011;5585;52.530;7.320;2024-03-02T00:45:24;3.00;;;2.70;;
11064;SDS011;5585;52.530;7.320;2024-03-02T00:47:51;4.00;;;2.63;;
11064;SDS011;5585;52.530;7.320;2024-03-02T00:50:17;2.37;;;2.17;;
11064;SDS011;5585;52.530;7.320;2024-03-02T00:52:43;3.57;;;2.30;;
11064;SDS011;5585;52.530;7.320;2024-03-02T00:55:10;3.60;;;2.60;;
11064;SDS011;5585;52.530;7.320;2024-03-02T00:57:37;2.70;;;1.97;;
11064;SDS011;5585;52.530;7.320;2024-03-02T01:00:05;2.53;;;2.33;;
11064;SDS011;5585;52.530;7.320;2024-03-02T01:02:37;2.53;;;2.33;;
11064;SDS011;5585;52.530;7.320;2024-03-02T01:05:05;2.77;;;2.30;;
11064;SDS011;5585;52.530;7.320;2024-03-02T01:07:33;2.70;;;2.03;;
11064;SDS011;5585;52.530;7.320;2024-03-02T01:09:59;2.40;;;2.20;;
11064;SDS011;5585;52.530;7.320;2024-03-02T01:12:26;3.43;;;2.10;;
11064;SDS011;5585;52.530;7.320;2024-03-02T01:14:52;2.43;;;2.23;;
11064;SDS011;5585;52.530;7.320;2024-03-02T01:17:20;2.17;;;1.97;;
11064;SDS011;5585;52.530;7.320;2024-03-02T01:19:47;2.30;;;2.10;;
11064;SDS011;5585;52.530;7.320;2024-03-02T01:22:14;2.40;;;2.20;;
11064;SDS011;5585;52.530;7.320;2024-03-02T01:24:41;2.60;;;2.37;;
11064;SDS011;5585;52.530;7.320;2024-03-02T01:27:07;2.87;;;2.43;;
11064;SDS011;5585;52.530;7.320;2024-03-02T01:29:34;2.60;;;2.40;;
11064;SDS011;5585;52.530;7.320;2024-03-02T01:32:00;2.40;;;2.20;;
11064;SDS011;5585;52.530;7.320;2024-03-02T01:34:28;2.80;;;2.60;;
11064;SDS011;5585;52.530;7.320;2024-03-02T01:36:54;2.67;;;2.47;;
11064;SDS011;5585;52.530;7.320;2024-03-02T01:39:21;3.00;;;2.43;;
11064;SDS011;5585;52.530;7.320;2024-03-02T01:41:47;2.70;;;2.40;;
11064;SDS011;5585;52.530;7.320;2024-03-02T01:44:13;2.77;;;2.47;;
11064;SDS011;5585;52.530;7.320;2024-03-02T01:46:40;3.23;;;2.13;;
11064;SDS011;5585;52.530;7.320;2024-03-02T01:49:06;3.00;;;2.50;;
11064;SDS011;5585;52.530;7.320;2024-03-02T01:51:34;3.37;;;2.83;;
11064;SDS011;5585;52.530;7.320;2024-03-02T01:54:00;2.60;;;2.40;;
11064;SDS011;5585;52.530;7.320;2024-03-02T01:56:27;3.60;;;2.70;;
11064;SDS011;5585;52.530;7.320;2024-03-02T01:58:53;2.53;;;2.33;;
11064;SDS011;5585;52.530;7.320;2024-03-02T02:01:20;2.90;;;2.33;;
11064;SDS011;5585;52.530;7.320;2024-03-02T02:03:46;2.40;;;2.20;;
11064;SDS011;5585;52.530;7.320;2024-03-02T02:06:12;3.17;;;2.43;;
11064;SDS011;5585;52.530;7.320;2024-03-02T02:08:40;2.73;;;2.30;;
11064;SDS011;5585;52.530;7.320;2024-03-02T02:11:07;2.37;;;2.17;;
11064;SDS011;5585;52.530;7.320;2024-03-02T02:13:33;3.13;;;2.83;;
11064;SDS011;5585;52.530;7.320;2024-03-02T02:16:04;2.63;;;2.43;;
11064;SDS011;5585;52.530;7.320;2024-03-02T02:18:30;2.53;;;2.13;;
11064;SDS011;5585;52.530;7.320;2024-03-02T02:20:57;3.37;;;2.50;;
11064;SDS011;5585;52.530;7.320;2024-03-02T02:23:24;2.80;;;2.50;;
11064;SDS011;5585;52.530;7.320;2024-03-02T02:25:51;2.90;;;2.60;;
11064;SDS011;5585;52.530;7.320;2024-03-02T02:28:17;3.43;;;2.50;;
11064;SDS011;5585;52.530;7.320;2024-03-02T02:30:44;2.70;;;2.30;;
11064;SDS011;5585;52.530;7.320;2024-03-02T02:33:10;3.70;;;2.40;;
11064;SDS011;5585;52.530;7.320;2024-03-02T02:35:37;3.77;;;2.70;;
11064;SDS011;5585;52.530;7.320;2024-03-02T02:38:03;2.77;;;2.57;;
11064;SDS011;5585;52.530;7.320;2024-03-02T02:40:31;2.53;;;2.33;;
11064;SDS011;5585;52.530;7.320;2024-03-02T02:42:58;2.70;;;2.50;;
11064;SDS011;5585;52.530;7.320;2024-03-02T02:45:24;3.27;;;2.40;;
11064;SDS011;5585;52.530;7.320;2024-03-02T02:47:51;2.97;;;2.50;;
11064;SDS011;5585;52.530;7.320;2024-03-02T02:50:17;2.70;;;2.40;;
11064;SDS011;5585;52.530;7.320;2024-03-02T02:52:44;2.80;;;2.40;;
11064;SDS011;5585;52.530;7.320;2024-03-02T02:55:10;2.60;;;2.40;;
11064;SDS011;5585;52.530;7.320;2024-03-02T02:57:39;2.93;;;2.67;;
11064;SDS011;5585;52.530;7.320;2024-03-02T03:00:07;2.73;;;2.43;;
11064;SDS011;5585;52.530;7.320;2024-03-02T03:02:39;3.60;;;2.87;;
11064;SDS011;5585;52.530;7.320;2024-03-02T03:05:07;2.40;;;2.20;;
11064;SDS011;5585;52.530;7.320;2024-03-02T03:07:34;3.00;;;2.70;;
11064;SDS011;5585;52.530;7.320;2024-03-02T03:10:01;3.20;;;2.60;;
11064;SDS011;5585;52.530;7.320;2024-03-02T03:12:28;3.10;;;2.30;;
11064;SDS011;5585;52.530;7.320;2024-03-02T03:14:56;3.53;;;2.67;;
11064;SDS011;5585;52.530;7.320;2024-03-02T03:17:23;2.70;;;2.50;;
11064;SDS011;5585;52.530;7.320;2024-03-02T03:19:49;2.80;;;2.50;;
11064;SDS011;5585;52.530;7.320;2024-03-02T03:22:16;3.33;;;3.00;;
11064;SDS011;5585;52.530;7.320;2024-03-02T03:24:42;3.47;;;2.53;;
11064;SDS011;5585;52.530;7.320;2024-03-02T03:27:09;2.67;;;2.47;;
11064;SDS011;5585;52.530;7.320;2024-03-02T03:29:36;3.50;;;3.10;;
11064;SDS011;5585;52.530;7.320;2024-03-02T03:32:04;3.30;;;2.83;;
11064;SDS011;5585;52.530;7.320;2024-03-02T03:34:32;3.47;;;2.80;;
11064;SDS011;5585;52.530;7.320;2024-03-02T03:36:58;3.60;;;3.10;;
11064;SDS011;5585;52.530;7.320;2024-03-02T03:39:25;3.93;;;3.00;;
11064;SDS011;5585;52.530;7.320;2024-03-02T03:41:51;5.17;;;2.87;;
11064;SDS011;5585;52.530;7.320;2024-03-02T03:44:18;3.03;;;2.63;;
11064;SDS011;5585;52.530;7.320;2024-03-02T03:46:44;3.30;;;2.97;;
11064;SDS011;5585;52.530;7.320;2024-03-02T03:49:12;3.30;;;2.93;;
11064;SDS011;5585;52.530;7.320;2024-03-02T03:51:39;3.80;;;3.10;;
11064;SDS011;5585;52.530;7.320;2024-03-02T03:54:05;3.23;;;2.93;;
11064;SDS011;5585;52.530;7.320;2024-03-02T03:56:31;4.00;;;2.80;;
11064;SDS011;5585;52.530;7.320;2024-03-02T03:58:58;3.40;;;2.83;;
11064;SDS011;5585;52.530;7.320;2024-03-02T04:01:24;3.63;;;2.97;;
11064;SDS011;5585;52.530;7.320;2024-03-02T04:03:51;3.90;;;2.83;;
11064;SDS011;5585;52.530;7.320;2024-03-02T04:06:19;3.17;;;2.87;;
11064;SDS011;5585;52.530;7.320;2024-03-02T04:08:45;3.40;;;2.83;;
11064;SDS011;5585;52.530;7.320;2024-03-02T04:11:11;3.03;;;2.83;;
11064;SDS011;5585;52.530;7.320;2024-03-02T04:13:38;3.00;;;2.70;;
11064;SDS011;5585;52.530;7.320;2024-03-02T04:16:04;3.07;;;2.77;;
11064;SDS011;5585;52.530;7.320;2024-03-02T04:18:31;3.53;;;2.70;;
11064;SDS011;5585;52.530;7.320;2024-03-02T04:20:58;3.43;;;2.87;;
11064;SDS011;5585;52.530;7.320;2024-03-02T04:23:26;3.30;;;2.70;;
11064;SDS011;5585;52.530;7.320;2024-03-02T04:25:52;3.03;;;2.80;;
11064;SDS011;5585;52.530;7.320;2024-03-02T04:28:19;3.90;;;3.53;;
11064;SDS011;5585;52.530;7.320;2024-03-02T04:30:45;3.70;;;3.30;;
11064;SDS011;5585;52.530;7.320;2024-03-02T04:33:12;3.27;;;2.97;;
11064;SDS011;5585;52.530;7.320;2024-03-02T04:35:38;3.13;;;2.83;;
11064;SDS011;5585;52.530;7.320;2024-03-02T04:38:04;3.20;;;2.90;;
11064;SDS011;5585;52.530;7.320;2024-03-02T04:40:32;3.50;;;3.10;;
11064;SDS011;5585;52.530;7.320;2024-03-02T04:42:59;4.10;;;3.07;;
11064;SDS011;5585;52.530;7.320;2024-03-02T04:45:25;3.40;;;3.00;;
11064;SDS011;5585;52.530;7.320;2024-03-02T04:47:52;3.27;;;2.80;;
11064;SDS011;5585;52.530;7.320;2024-03-02T04:50:18;3.53;;;3.17;;
11064;SDS011;5585;52.530;7.320;2024-03-02T04:52:45;2.87;;;2.57;;
11064;SDS011;5585;52.530;7.320;2024-03-02T04:55:11;3.03;;;2.73;;
11064;SDS011;5585;52.530;7.320;2024-03-02T04:57:56;3.40;;;3.10;;
11064;SDS011;5585;52.530;7.320;2024-03-02T05:00:22;4.00;;;3.47;;
11064;SDS011;5585;52.530;7.320;2024-03-02T05:02:49;3.30;;;3.00;;
11064;SDS011;5585;52.530;7.320;2024-03-02T05:05:16;3.73;;;3.43;;
11064;SDS011;5585;52.530;7.320;2024-03-02T05:07:42;3.27;;;2.97;;
11064;SDS011;5585;52.530;7.320;2024-03-02T05:10:09;4.53;;;3.47;;
11064;SDS011;5585;52.530;7.320;2024-03-02T05:12:36;4.23;;;3.50;;
11064;SDS011;5585;52.530;7.320;2024-03-02T05:15:23;3.80;;;3.40;;
11064;SDS011;5585;52.530;7.320;2024-03-02T05:17:49;3.53;;;3.23;;
11064;SDS011;5585;52.530;7.320;2024-03-02T05:20:16;3.50;;;3.20;;
11064;SDS011;5585;52.530;7.320;2024-03-02T05:22:42;5.83;;;3.93;;
11064;SDS011;5585;52.530;7.320;2024-03-02T05:25:09;4.00;;;3.60;;
11064;SDS011;5585;52.530;7.320;2024-03-02T05:27:35;3.67;;;3.33;;
11064;SDS011;5585;52.530;7.320;2024-03-02T05:30:02;3.97;;;3.57;;
11064;SDS011;5585;52.530;7.320;2024-03-02T05:32:32;4.00;;;3.60;;
11064;SDS011;5585;52.530;7.320;2024-03-02T05:34:59;3.40;;;3.10;;
11064;SDS011;5585;52.530;7.320;2024-03-02T05:37:25;4.23;;;3.60;;
11064;SDS011;5585;52.530;7.320;2024-03-02T05:39:52;6.53;;;5.23;;
11064;SDS011;5585;52.530;7.320;2024-03-02T05:42:18;12.63;;;8.40;;
11064;SDS011;5585;52.530;7.320;2024-03-02T05:44:45;11.20;;;7.80;;
11064;SDS011;5585;52.530;7.320;2024-03-02T05:47:11;8.37;;;6.20;;
11064;SDS011;5585;52.530;7.320;2024-03-02T05:49:39;8.67;;;5.47;;
11064;SDS011;5585;52.530;7.320;2024-03-02T05:52:05;4.50;;;3.90;;
11064;SDS011;5585;52.530;7.320;2024-03-02T05:54:32;4.77;;;4.27;;
11064;SDS011;5585;52.530;7.320;2024-03-02T05:56:58;4.60;;;4.00;;
11064;SDS011;5585;52.530;7.320;2024-03-02T05:59:41;4.20;;;3.73;;
11064;SDS011;5585;52.530;7.320;2024-03-02T06:02:08;4.43;;;3.87;;
11064;SDS011;5585;52.530;7.320;2024-03-02T06:04:34;3.90;;;3.50;;
11064;SDS011;5585;52.530;7.320;2024-03-02T06:07:02;4.03;;;3.30;;
11064;SDS011;5585;52.530;7.320;2024-03-02T06:09:28;4.40;;;3.53;;
11064;SDS011;5585;52.530;7.320;2024-03-02T06:11:55;3.83;;;3.43;;
11064;SDS011;5585;52.530;7.320;2024-03-02T06:14:21;4.83;;;3.60;;
11064;SDS011;5585;52.530;7.320;2024-03-02T06:16:47;4.60;;;4.07;;
11064;SDS011;5585;52.530;7.320;2024-03-02T06:19:14;4.27;;;3.40;;
11064;SDS011;5585;52.530;7.320;2024-03-02T06:21:40;4.87;;;3.90;;
11064;SDS011;5585;52.530;7.320;2024-03-02T06:24:08;4.27;;;3.40;;
11064;SDS011;5585;52.530;7.320;2024-03-02T06:26:34;3.93;;;3.40;;
11064;SDS011;5585;52.530;7.320;2024-03-02T06:29:01;4.37;;;3.97;;
11064;SDS011;5585;52.530;7.320;2024-03-02T06:31:27;4.20;;;3.57;;
11064;SDS011;5585;52.530;7.320;2024-03-02T06:33:55;3.33;;;3.03;;
11064;SDS011;5585;52.530;7.320;2024-03-02T06:36:21;4.40;;;3.33;;
11064;SDS011;5585;52.530;7.320;2024-03-02T06:38:48;5.07;;;3.60;;
11064;SDS011;5585;52.530;7.320;2024-03-02T06:41:16;4.33;;;3.73;;
11064;SDS011;5585;52.530;7.320;2024-03-02T06:43:42;4.03;;;3.53;;
11064;SDS011;5585;52.530;7.320;2024-03-02T06:46:08;4.93;;;3.90;;
11064;SDS011;5585;52.530;7.320;2024-03-02T06:48:39;4.70;;;4.10;;
11064;SDS011;5585;52.530;7.320;2024-03-02T06:51:06;4.40;;;3.70;;
11064;SDS011;5585;52.530;7.320;2024-03-02T06:53:32;7.03;;;5.37;;
11064;SDS011;5585;52.530;7.320;2024-03-02T06:55:59;9.30;;;6.07;;
11064;SDS011;5585;52.530;7.320;2024-03-02T06:58:27;10.67;;;6.20;;
11064;SDS011;5585;52.530;7.320;2024-03-02T07:00:53;6.50;;;4.43;;
11064;SDS011;5585;52.530;7.320;2024-03-02T07:03:20;4.70;;;3.90;;
11064;SDS011;5585;52.530;7.320;2024-03-02T07:05:46;4.43;;;3.97;;
11064;SDS011;5585;52.530;7.320;2024-03-02T07:08:13;4.50;;;4.10;;
11064;SDS011;5585;52.530;7.320;2024-03-02T07:10:39;4.30;;;3.90;;
11064;SDS011;5585;52.530;7.320;2024-03-02T07:13:06;4.30;;;3.90;;
11064;SDS011;5585;52.530;7.320;2024-03-02T07:15:34;4.00;;;3.60;;
11064;SDS011;5585;52.530;7.320;2024-03-02T07:18:19;4.70;;;3.43;;
11064;SDS011;5585;52.530;7.320;2024-03-02T07:20:46;4.60;;;3.80;;
11064;SDS011;5585;52.530;7.320;2024-03-02T07:23:14;4.03;;;3.07;;
11064;SDS011;5585;52.530;7.320;2024-03-02T07:25:40;4.03;;;3.63;;
11064;SDS011;5585;52.530;7.320;2024-03-02T07:28:07;4.40;;;4.00;;
11064;SDS011;5585;52.530;7.320;2024-03-02T07:30:35;5.10;;;3.57;;
11064;SDS011;5585;52.530;7.320;2024-03-02T07:33:03;4.17;;;3.77;;
11064;SDS011;5585;52.530;7.320;2024-03-02T07:35:30;4.20;;;3.60;;
11064;SDS011;5585;52.530;7.320;2024-03-02T07:37:56;4.10;;;3.70;;
11064;SDS011;5585;52.530;7.320;2024-03-02T07:40:23;3.90;;;3.50;;
11064;SDS011;5585;52.530;7.320;2024-03-02T07:42:50;4.17;;;3.80;;
11064;SDS011;5585;52.530;7.320;2024-03-02T07:45:16;4.20;;;3.80;;
11064;SDS011;5585;52.530;7.320;2024-03-02T07:47:44;4.93;;;4.13;;
11064;SDS011;5585;52.530;7.320;2024-03-02T07:50:11;4.20;;;3.80;;
11064;SDS011;5585;52.530;7.320;2024-03-02T07:52:37;7.73;;;3.73;;
11064;SDS011;5585;52.530;7.320;2024-03-02T07:55:04;4.40;;;3.60;;
11064;SDS011;5585;52.530;7.320;2024-03-02T07:57:30;4.00;;;3.60;;
11064;SDS011;5585;52.530;7.320;2024-03-02T07:59:57;4.03;;;3.63;;
11064;SDS011;5585;52.530;7.320;2024-03-02T08:02:24;4.00;;;3.47;;
11064;SDS011;5585;52.530;7.320;2024-03-02T08:04:52;4.43;;;3.40;;
11064;SDS011;5585;52.530;7.320;2024-03-02T08:07:18;3.87;;;3.50;;
11064;SDS011;5585;52.530;7.320;2024-03-02T08:09:45;4.43;;;3.70;;
11064;SDS011;5585;52.530;7.320;2024-03-02T08:12:11;5.33;;;3.50;;
11064;SDS011;5585;52.530;7.320;2024-03-02T08:14:38;3.80;;;3.40;;
11064;SDS011;5585;52.530;7.320;2024-03-02T08:17:05;3.97;;;3.47;;
11064;SDS011;5585;52.530;7.320;2024-03-02T08:19:34;3.83;;;3.53;;
11064;SDS011;5585;52.530;7.320;2024-03-02T08:22:02;5.27;;;3.70;;
11064;SDS011;5585;52.530;7.320;2024-03-02T08:24:29;6.27;;;3.57;;
11064;SDS011;5585;52.530;7.320;2024-03-02T08:26:55;7.07;;;4.17;;
11064;SDS011;5585;52.530;7.320;2024-03-02T08:29:22;3.27;;;2.80;;
11064;SDS011;5585;52.530;7.320;2024-03-02T08:31:48;3.53;;;3.10;;
11064;SDS011;5585;52.530;7.320;2024-03-02T08:34:15;4.33;;;2.93;;
11064;SDS011;5585;52.530;7.320;2024-03-02T08:36:41;3.43;;;3.00;;
11064;SDS011;5585;52.530;7.320;2024-03-02T08:39:09;4.47;;;3.27;;
11064;SDS011;5585;52.530;7.320;2024-03-02T08:41:40;4.03;;;3.00;;
11064;SDS011;5585;52.530;7.320;2024-03-02T08:44:06;3.13;;;2.63;;
11064;SDS011;5585;52.530;7.320;2024-03-02T08:46:33;3.30;;;2.97;;
11064;SDS011;5585;52.530;7.320;2024-03-02T08:48:59;4.37;;;3.10;;
11064;SDS011;5585;52.530;7.320;2024-03-02T08:51:26;3.03;;;2.40;;
11064;SDS011;5585;52.530;7.320;2024-03-02T08:53:52;4.00;;;3.10;;
11064;SDS011;5585;52.530;7.320;2024-03-02T08:56:20;3.27;;;2.60;;
11064;SDS011;5585;52.530;7.320;2024-03-02T08:58:48;4.33;;;3.10;;
11064;SDS011;5585;52.530;7.320;2024-03-02T09:01:15;3.47;;;2.70;;
11064;SDS011;5585;52.530;7.320;2024-03-02T09:03:42;3.83;;;3.17;;
11064;SDS011;5585;52.530;7.320;2024-03-02T09:06:09;3.53;;;3.07;;
11064;SDS011;5585;52.530;7.320;2024-03-02T09:08:36;3.47;;;3.00;;
11064;SDS011;5585;52.530;7.320;2024-03-02T09:11:03;3.87;;;2.63;;
11064;SDS011;5585;52.530;7.320;2024-03-02T09:13:31;3.53;;;2.60;;
11064;SDS011;5585;52.530;7.320;2024-03-02T09:15:58;2.60;;;2.23;;
11064;SDS011;5585;52.530;7.320;2024-03-02T09:18:24;3.03;;;2.30;;
11064;SDS011;5585;52.530;7.320;2024-03-02T09:20:51;3.70;;;2.45;;
11064;SDS011;5585;52.530;7.320;2024-03-02T09:23:17;3.72;;;2.30;;
11064;SDS011;5585;52.530;7.320;2024-03-02T09:25:43;3.50;;;2.27;;
11064;SDS011;5585;52.530;7.320;2024-03-02T09:28:09;3.93;;;2.50;;
11064;SDS011;5585;52.530;7.320;2024-03-02T09:30:37;3.00;;;2.17;;
11064;SDS011;5585;52.530;7.320;2024-03-02T09:33:04;3.47;;;2.30;;
11064;SDS011;5585;52.530;7.320;2024-03-02T09:35:30;3.25;;;1.83;;
11064;SDS011;5585;52.530;7.320;2024-03-02T09:37:57;2.90;;;2.00;;
11064;SDS011;5585;52.530;7.320;2024-03-02T09:40:23;2.67;;;1.90;;
11064;SDS011;5585;52.530;7.320;2024-03-02T09:42:50;4.03;;;1.90;;
11064;SDS011;5585;52.530;7.320;2024-03-02T09:45:18;2.45;;;1.75;;
11064;SDS011;5585;52.530;7.320;2024-03-02T09:47:48;2.25;;;1.83;;
11064;SDS011;5585;52.530;7.320;2024-03-02T09:50:15;2.27;;;2.03;;
11064;SDS011;5585;52.530;7.320;2024-03-02T09:52:42;1.60;;;1.50;;
11064;SDS011;5585;52.530;7.320;2024-03-02T09:55:08;2.35;;;1.50;;
11064;SDS011;5585;52.530;7.320;2024-03-02T09:57:34;3.35;;;2.22;;
11064;SDS011;5585;52.530;7.320;2024-03-02T10:00:00;2.17;;;1.52;;
11064;SDS011;5585;52.530;7.320;2024-03-02T10:02:27;1.73;;;1.52;;
11064;SDS011;5585;52.530;7.320;2024-03-02T10:04:55;2.13;;;1.80;;
11064;SDS011;5585;52.530;7.320;2024-03-02T10:07:21;2.67;;;1.67;;
11064;SDS011;5585;52.530;7.320;2024-03-02T10:09:48;2.20;;;1.55;;
11064;SDS011;5585;52.530;7.320;2024-03-02T10:12:15;2.95;;;1.63;;
11064;SDS011;5585;52.530;7.320;2024-03-02T10:14:42;1.70;;;1.40;;
11064;SDS011;5585;52.530;7.320;2024-03-02T10:17:08;3.33;;;1.95;;
11064;SDS011;5585;52.530;7.320;2024-03-02T10:19:35;2.47;;;1.80;;
11064;SDS011;5585;52.530;7.320;2024-03-02T10:22:04;2.85;;;1.90;;
11064;SDS011;5585;52.530;7.320;2024-03-02T10:24:35;2.08;;;1.67;;
11064;SDS011;5585;52.530;7.320;2024-03-02T10:27:06;2.95;;;2.10;;
11064;SDS011;5585;52.530;7.320;2024-03-02T10:29:36;1.90;;;1.70;;
11064;SDS011;5585;52.530;7.320;2024-03-02T10:32:02;2.42;;;2.03;;
11064;SDS011;5585;52.530;7.320;2024-03-02T10:34:29;2.55;;;1.75;;
11064;SDS011;5585;52.530;7.320;2024-03-02T10:36:57;2.80;;;2.05;;
11064;SDS011;5585;52.530;7.320;2024-03-02T10:39:24;3.67;;;2.13;;
11064;SDS011;5585;52.530;7.320;2024-03-02T10:41:52;2.42;;;2.03;;
11064;SDS011;5585;52.530;7.320;2024-03-02T10:44:18;4.13;;;1.90;;
11064;SDS011;5585;52.530;7.320;2024-03-02T10:46:45;2.60;;;2.05;;
11064;SDS011;5585;52.530;7.320;2024-03-02T10:49:12;2.63;;;1.70;;
11064;SDS011;5585;52.530;7.320;2024-03-02T10:51:38;3.15;;;1.70;;
11064;SDS011;5585;52.530;7.320;2024-03-02T10:54:05;2.03;;;1.30;;
11064;SDS011;5585;52.530;7.320;2024-03-02T10:56:33;2.75;;;1.90;;
11064;SDS011;5585;52.530;7.320;2024-03-02T10:59:01;1.63;;;1.45;;
11064;SDS011;5585;52.530;7.320;2024-03-02T11:01:29;2.42;;;1.80;;
11064;SDS011;5585;52.530;7.320;2024-03-02T11:03:56;2.25;;;1.50;;
11064;SDS011;5585;52.530;7.320;2024-03-02T11:06:22;2.10;;;1.50;;
11064;SDS011;5585;52.530;7.320;2024-03-02T11:08:51;3.47;;;2.03;;
11064;SDS011;5585;52.530;7.320;2024-03-02T11:11:27;1.33;;;1.20;;
11064;SDS011;5585;52.530;7.320;2024-03-02T11:13:56;4.28;;;1.67;;
11064;SDS011;5585;52.530;7.320;2024-03-02T11:16:26;1.35;;;1.25;;
11064;SDS011;5585;52.530;7.320;2024-03-02T11:18:55;2.47;;;1.67;;
11064;SDS011;5585;52.530;7.320;2024-03-02T11:21:23;1.67;;;1.17;;
11064;SDS011;5585;52.530;7.320;2024-03-02T11:23:50;2.35;;;1.40;;
11064;SDS011;5585;52.530;7.320;2024-03-02T11:26:17;2.03;;;1.13;;
11064;SDS011;5585;52.530;7.320;2024-03-02T11:28:44;2.55;;;1.40;;
11064;SDS011;5585;52.530;7.320;2024-03-02T11:31:11;2.08;;;1.00;;
11064;SDS011;5585;52.530;7.320;2024-03-02T11:33:38;4.40;;;1.30;;
11064;SDS011;5585;52.530;7.320;2024-03-02T11:36:06;1.60;;;1.20;;
11064;SDS011;5585;52.530;7.320;2024-03-02T11:38:33;2.85;;;1.70;;
11064;SDS011;5585;52.530;7.320;2024-03-02T11:41:00;1.88;;;1.30;;
11064;SDS011;5585;52.530;7.320;2024-03-02T11:43:27;1.50;;;1.20;;
11064;SDS011;5585;52.530;7.320;2024-03-02T11:45:57;1.45;;;1.10;;
11064;SDS011;5585;52.530;7.320;2024-03-02T11:48:26;1.77;;;1.00;;
11064;SDS011;5585;52.530;7.320;2024-03-02T11:50:52;2.05;;;1.20;;
11064;SDS011;5585;52.530;7.320;2024-03-02T11:53:19;2.60;;;1.25;;
11064;SDS011;5585;52.530;7.320;2024-03-02T11:55:46;2.75;;;1.40;;
11064;SDS011;5585;52.530;7.320;2024-03-02T11:58:12;1.00;;;1.00;;
11064;SDS011;5585;52.530;7.320;2024-03-02T12:00:39;2.13;;;1.63;;
11064;SDS011;5585;52.530;7.320;2024-03-02T12:03:06;3.10;;;1.50;;
11064;SDS011;5585;52.530;7.320;2024-03-02T12:05:35;2.22;;;1.35;;
11064;SDS011;5585;52.530;7.320;2024-03-02T12:08:02;1.45;;;1.35;;
11064;SDS011;5585;52.530;7.320;2024-03-02T12:10:28;1.80;;;1.08;;
11064;SDS011;5585;52.530;7.320;2024-03-02T12:12:56;1.60;;;1.00;;
11064;SDS011;5585;52.530;7.320;2024-03-02T12:15:23;1.85;;;1.35;;
11064;SDS011;5585;52.530;7.320;2024-03-02T12:17:52;2.63;;;1.33;;
11064;SDS011;5585;52.530;7.320;2024-03-02T12:20:18;1.17;;;1.02;;
11064;SDS011;5585;52.530;7.320;2024-03-02T12:22:46;1.73;;;1.30;;
11064;SDS011;5585;52.530;7.320;2024-03-02T12:25:13;2.03;;;1.38;;
11064;SDS011;5585;52.530;7.320;2024-03-02T12:27:39;1.35;;;1.25;;
11064;SDS011;5585;52.530;7.320;2024-03-02T12:30:06;2.60;;;1.48;;
11064;SDS011;5585;52.530;7.320;2024-03-02T12:32:35;3.70;;;1.77;;
11064;SDS011;5585;52.530;7.320;2024-03-02T12:35:03;1.83;;;1.52;;
11064;SDS011;5585;52.530;7.320;2024-03-02T12:37:30;2.83;;;1.65;;
11064;SDS011;5585;52.530;7.320;2024-03-02T12:39:58;1.98;;;1.30;;
11064;SDS011;5585;52.530;7.320;2024-03-02T12:42:24;2.25;;;1.50;;
11064;SDS011;5585;52.530;7.320;2024-03-02T12:44:51;3.72;;;1.67;;
11064;SDS011;5585;52.530;7.320;2024-03-02T12:47:19;1.90;;;1.60;;
11064;SDS011;5585;52.530;7.320;2024-03-02T12:49:45;1.98;;;1.63;;
11064;SDS011;5585;52.530;7.320;2024-03-02T12:52:12;1.92;;;1.38;;
11064;SDS011;5585;52.530;7.320;2024-03-02T12:54:39;2.30;;;1.20;;
11064;SDS011;5585;52.530;7.320;2024-03-02T12:57:07;1.95;;;1.50;;
11064;SDS011;5585;52.530;7.320;2024-03-02T12:59:33;2.75;;;1.70;;
11064;SDS011;5585;52.530;7.320;2024-03-02T13:01:59;1.58;;;1.48;;
11064;SDS011;5585;52.530;7.320;2024-03-02T13:04:27;2.22;;;1.50;;
11064;SDS011;5585;52.530;7.320;2024-03-02T13:06:54;2.00;;;1.52;;
11064;SDS011;5585;52.530;7.320;2024-03-02T13:09:22;1.85;;;1.25;;
11064;SDS011;5585;52.530;7.320;2024-03-02T13:11:49;1.88;;;1.52;;
11064;SDS011;5585;52.530;7.320;2024-03-02T13:14:17;2.25;;;1.40;;
11064;SDS011;5585;52.530;7.320;2024-03-02T13:16:44;2.60;;;1.33;;
11064;SDS011;5585;52.530;7.320;2024-03-02T13:19:12;1.48;;;1.38;;
11064;SDS011;5585;52.530;7.320;2024-03-02T13:21:38;2.25;;;1.50;;
11064;SDS011;5585;52.530;7.320;2024-03-02T13:24:05;3.25;;;1.50;;
11064;SDS011;5585;52.530;7.320;2024-03-02T13:26:32;1.73;;;1.50;;
11064;SDS011;5585;52.530;7.320;2024-03-02T13:28:58;2.80;;;1.42;;
11064;SDS011;5585;52.530;7.320;2024-03-02T13:31:26;1.73;;;1.38;;
11064;SDS011;5585;52.530;7.320;2024-03-02T13:33:52;1.42;;;1.33;;
11064;SDS011;5585;52.530;7.320;2024-03-02T13:36:19;2.05;;;1.13;;
11064;SDS011;5585;52.530;7.320;2024-03-02T13:38:45;2.45;;;1.35;;
11064;SDS011;5585;52.530;7.320;2024-03-02T13:41:12;2.20;;;1.48;;
11064;SDS011;5585;52.530;7.320;2024-03-02T13:43:38;1.85;;;1.40;;
11064;SDS011;5585;52.530;7.320;2024-03-02T13:46:05;1.50;;;1.40;;
11064;SDS011;5585;52.530;7.320;2024-03-02T13:48:32;1.92;;;1.50;;
11064;SDS011;5585;52.530;7.320;2024-03-02T13:50:59;1.80;;;1.20;;
11064;SDS011;5585;52.530;7.320;2024-03-02T13:53:25;1.95;;;1.10;;
11064;SDS011;5585;52.530;7.320;2024-03-02T13:55:52;2.72;;;1.50;;
11064;SDS011;5585;52.530;7.320;2024-03-02T13:58:18;2.33;;;1.40;;
11064;SDS011;5585;52.530;7.320;2024-03-02T14:00:46;1.50;;;1.40;;
11064;SDS011;5585;52.530;7.320;2024-03-02T14:03:12;1.58;;;1.27;;
11064;SDS011;5585;52.530;7.320;2024-03-02T14:05:40;1.88;;;1.23;;
11064;SDS011;5585;52.530;7.320;2024-03-02T14:08:07;1.85;;;1.63;;
11064;SDS011;5585;52.530;7.320;2024-03-02T14:10:33;1.98;;;1.35;;
11064;SDS011;5585;52.530;7.320;2024-03-02T14:13:00;2.25;;;1.23;;
11064;SDS011;5585;52.530;7.320;2024-03-02T14:15:27;1.48;;;1.17;;
11064;SDS011;5585;52.530;7.320;2024-03-02T14:17:55;1.73;;;1.25;;
11064;SDS011;5585;52.530;7.320;2024-03-02T14:20:21;2.78;;;1.30;;
11064;SDS011;5585;52.530;7.320;2024-03-02T14:22:50;2.88;;;1.20;;
11064;SDS011;5585;52.530;7.320;2024-03-02T14:25:16;1.75;;;1.10;;
11064;SDS011;5585;52.530;7.320;2024-03-02T14:27:44;3.10;;;1.30;;
11064;SDS011;5585;52.530;7.320;2024-03-02T14:30:11;3.05;;;1.20;;
11064;SDS011;5585;52.530;7.320;2024-03-02T14:32:38;1.92;;;1.23;;
11064;SDS011;5585;52.530;7.320;2024-03-02T14:35:05;1.85;;;1.23;;
11064;SDS011;5585;52.530;7.320;2024-03-02T14:37:34;2.22;;;1.40;;
11064;SDS011;5585;52.530;7.320;2024-03-02T14:40:02;1.77;;;1.60;;
11064;SDS011;5585;52.530;7.320;2024-03-02T14:42:31;2.03;;;1.40;;
11064;SDS011;5585;52.530;7.320;2024-03-02T14:44:57;3.63;;;1.63;;
11064;SDS011;5585;52.530;7.320;2024-03-02T14:47:24;3.22;;;1.10;;
11064;SDS011;5585;52.530;7.320;2024-03-02T14:49:50;1.42;;;1.20;;
11064;SDS011;5585;52.530;7.320;2024-03-02T14:52:18;1.23;;;0.73;;
11064;SDS011;5585;52.530;7.320;2024-03-02T14:54:44;1.55;;;1.00;;
11064;SDS011;5585;52.530;7.320;2024-03-02T14:57:13;2.40;;;1.60;;
11064;SDS011;5585;52.530;7.320;2024-03-02T14:59:39;1.10;;;1.00;;